Time;durP1;ratioP1;P1;durP2;ratioP2;P2;SDS_P1;SDS_P2;PMS_P1;PMS_P2;Temp;Humidity;BMP_temperature;BMP_pressure;BME280_temperature;BME280_humidity;BME280_pressure;Samples;Min_cycle;Max_cycle;Signal;HPM_P1;HPM_P2
2022/11/28 00:00:12;;;;;;;39.03;16.98;;;;;;;;;;6185316;23;20005;-34
2022/11/28 00:02:37;;;;;;;41.63;16.33;;;;;;;;;;6185698;23;20028;-33
2022/11/28 00:05:03;;;;;;;41.60;16.40;;;;;;;;;;6185616;23;20020;-33
2022/11/28 00:07:28;;;;;;;50.53;19.48;;;;;;;;;;6185414;23;19994;-33
2022/11/28 00:09:53;;;;;;;39.33;16.52;;;;;;;;;;6185350;23;20441;-33
2022/11/28 00:12:19;;;;;;;36.28;14.07;;;;;;;;;;6185552;23;20306;-33
2022/11/28 00:14:44;;;;;;;41.50;15.93;;;;;;;;;;6185533;23;19993;-33
2022/11/28 00:17:09;;;;;;;39.42;16.45;;;;;;;;;;6185420;23;20097;-33
2022/11/28 00:19:34;;;;;;;46.30;16.65;;;;;;;;;;6185259;23;20013;-34
2022/11/28 00:22:00;;;;;;;42.55;16.48;;;;;;;;;;6185857;23;19993;-34
2022/11/28 00:24:25;;;;;;;49.05;18.80;;;;;;;;;;6185368;23;20005;-33
2022/11/28 00:26:50;;;;;;;45.83;15.70;;;;;;;;;;6185137;23;20369;-33
2022/11/28 00:29:15;;;;;;;45.78;16.50;;;;;;;;;;6184931;23;20005;-33
2022/11/28 00:31:42;;;;;;;40.17;14.85;;;;;;;;;;6185260;23;20004;-34
2022/11/28 00:34:08;;;;;;;43.58;16.65;;;;;;;;;;6185738;23;20068;-33
2022/11/28 00:36:34;;;;;;;41.50;15.27;;;;;;;;;;6185203;23;19993;-34
2022/11/28 00:38:59;;;;;;;45.83;16.10;;;;;;;;;;6185255;23;20020;-34
2022/11/28 00:41:26;;;;;;;42.40;16.33;;;;;;;;;;6185790;23;19997;-33
2022/11/28 00:43:51;;;;;;;51.72;19.38;;;;;;;;;;6185274;23;20004;-33
2022/11/28 00:46:17;;;;;;;43.10;15.70;;;;;;;;;;6185354;23;19997;-33
2022/11/28 00:48:42;;;;;;;43.47;16.75;;;;;;;;;;6185058;23;20005;-34
2022/11/28 00:51:10;;;;;;;43.42;17.20;;;;;;;;;;6185086;23;20008;-35
2022/11/28 00:53:35;;;;;;;45.33;15.90;;;;;;;;;;6185210;23;20001;-33
2022/11/28 00:56:04;;;;;;;53.67;18.45;;;;;;;;;;6185378;23;20410;-33
2022/11/28 00:58:30;;;;;;;40.47;15.02;;;;;;;;;;6185312;23;20000;-33
2022/11/28 01:00:55;;;;;;;41.08;16.45;;;;;;;;;;6184653;23;20001;-33
2022/11/28 01:03:20;;;;;;;44.08;15.50;;;;;;;;;;6158384;23;19993;-34
2022/11/28 01:05:46;;;;;;;43.15;17.10;;;;;;;;;;6184746;23;20001;-34
2022/11/28 01:08:11;;;;;;;47.72;18.77;;;;;;;;;;6185216;23;20001;-33
2022/11/28 01:10:41;;;;;;;45.47;16.45;;;;;;;;;;6184956;23;20032;-33
2022/11/28 01:13:06;;;;;;;47.58;16.20;;;;;;;;;;6185352;23;19997;-33
2022/11/28 01:15:32;;;;;;;44.28;16.08;;;;;;;;;;6185029;23;20502;-34
2022/11/28 01:17:57;;;;;;;43.92;16.67;;;;;;;;;;6184908;23;20013;-33
2022/11/28 01:20:22;;;;;;;43.58;16.08;;;;;;;;;;6184480;23;19997;-33
2022/11/28 01:22:47;;;;;;;37.80;14.88;;;;;;;;;;6185076;23;19993;-32
2022/11/28 01:25:13;;;;;;;43.65;16.85;;;;;;;;;;6185357;23;19997;-32
2022/11/28 01:27:38;;;;;;;37.83;15.75;;;;;;;;;;6185076;23;20460;-33
2022/11/28 01:30:04;;;;;;;37.42;15.07;;;;;;;;;;6185098;23;20009;-32
2022/11/28 01:32:29;;;;;;;39.92;15.15;;;;;;;;;;6183863;23;20032;-32
2022/11/28 01:34:54;;;;;;;41.70;14.93;;;;;;;;;;6184776;23;20001;-33
2022/11/28 01:37:19;;;;;;;44.08;15.57;;;;;;;;;;6185054;23;20425;-33
2022/11/28 01:39:45;;;;;;;41.20;14.63;;;;;;;;;;6184991;23;20020;-33
2022/11/28 01:42:19;;;;;;;35.40;13.90;;;;;;;;;;6184992;23;19999;-32
2022/11/28 01:44:47;;;;;;;39.28;15.75;;;;;;;;;;6184852;23;19993;-32
2022/11/28 01:47:19;;;;;;;36.83;15.02;;;;;;;;;;6184774;23;19997;-33
2022/11/28 01:49:45;;;;;;;39.50;14.30;;;;;;;;;;6158283;23;20087;-33
2022/11/28 01:52:12;;;;;;;35.28;14.90;;;;;;;;;;6185028;23;19993;-33
2022/11/28 01:54:38;;;;;;;34.83;13.43;;;;;;;;;;6185081;23;19989;-32
2022/11/28 01:57:05;;;;;;;39.00;14.15;;;;;;;;;;6184565;23;19997;-32
2022/11/28 01:59:32;;;;;;;35.33;15.10;;;;;;;;;;6185428;23;20484;-32
2022/11/28 02:01:58;;;;;;;37.80;13.52;;;;;;;;;;6186560;23;20432;-33
2022/11/28 02:04:25;;;;;;;45.45;15.68;;;;;;;;;;6186208;23;20072;-33
2022/11/28 02:06:51;;;;;;;43.03;14.95;;;;;;;;;;6186628;23;20020;-33
2022/11/28 02:09:16;;;;;;;35.33;14.00;;;;;;;;;;6186490;23;20332;-32
2022/11/28 02:11:44;;;;;;;35.88;13.63;;;;;;;;;;6160024;23;20048;-33
2022/11/28 02:14:09;;;;;;;40.85;15.23;;;;;;;;;;6186662;23;20004;-32
2022/11/28 02:16:40;;;;;;;35.00;14.60;;;;;;;;;;6186344;23;20001;-32
2022/11/28 02:19:44;;;;;;;38.83;14.25;;;;;;;;;;6185972;23;20333;-33
2022/11/28 02:22:13;;;;;;;37.03;14.20;;;;;;;;;;6066095;23;20420;-32
2022/11/28 02:24:38;;;;;;;;;;;;;;;;;;6066880;23;20047;-32
2022/11/28 02:27:06;;;;;;;41.83;14.32;;;;;;;;;;6123943;23;19900;-32
2022/11/28 02:29:50;;;;;;;37.70;13.43;;;;;;;;;;6185980;23;20067;-33
2022/11/28 02:32:21;;;;;;;37.53;13.65;;;;;;;;;;6186776;23;20305;-32
2022/11/28 02:34:50;;;;;;;34.53;14.25;;;;;;;;;;6186668;23;19997;-32
2022/11/28 02:37:42;;;;;;;30.20;11.73;;;;;;;;;;6186517;23;19997;-33
2022/11/28 02:40:14;;;;;;;41.35;14.50;;;;;;;;;;6186497;23;20219;-32
2022/11/28 02:42:44;;;;;;;33.90;13.50;;;;;;;;;;6186153;23;19993;-32
2022/11/28 02:45:12;;;;;;;32.83;13.00;;;;;;;;;;6186201;23;20005;-32
2022/11/28 02:47:42;;;;;;;39.63;13.60;;;;;;;;;;6186374;23;20004;-32
2022/11/28 02:50:12;;;;;;;31.75;12.63;;;;;;;;;;6186199;23;20016;-32
2022/11/28 02:52:45;;;;;;;35.63;14.13;;;;;;;;;;6186204;23;19997;-32
2022/11/28 02:55:11;;;;;;;35.05;13.15;;;;;;;;;;6186246;23;20005;-33
2022/11/28 02:57:40;;;;;;;43.38;15.65;;;;;;;;;;6186357;23;19997;-32
2022/11/28 03:00:24;;;;;;;37.28;14.48;;;;;;;;;;6186354;23;19993;-32
2022/11/28 03:02:54;;;;;;;39.80;14.65;;;;;;;;;;6186157;23;20028;-33
2022/11/28 03:05:22;;;;;;;62.33;22.25;;;;;;;;;;6186171;23;20000;-34
2022/11/28 03:07:47;;;;;;;92.75;29.35;;;;;;;;;;6186186;23;19997;-33
2022/11/28 03:10:23;;;;;;;77.90;26.83;;;;;;;;;;6185499;23;20086;-33
2022/11/28 03:12:58;;;;;;;60.22;21.05;;;;;;;;;;6186064;23;20207;-33
2022/11/28 03:15:30;;;;;;;51.03;17.55;;;;;;;;;;6186029;23;20023;-33
2022/11/28 03:18:05;;;;;;;64.10;20.65;;;;;;;;;;6185972;23;20000;-33
2022/11/28 03:20:30;;;;;;;109.15;34.50;;;;;;;;;;6185978;23;19997;-33
2022/11/28 03:23:12;;;;;;;94.50;27.53;;;;;;;;;;6185727;23;20032;-33
2022/11/28 03:25:55;;;;;;;83.13;24.95;;;;;;;;;;6185773;23;20223;-33
2022/11/28 03:28:44;;;;;;;71.85;22.58;;;;;;;;;;6185930;23;20052;-33
2022/11/28 03:31:11;;;;;;;61.88;19.90;;;;;;;;;;6185837;23;20109;-33
2022/11/28 03:33:38;;;;;;;54.70;19.00;;;;;;;;;;6185767;23;20406;-33
2022/11/28 03:36:07;;;;;;;54.92;17.88;;;;;;;;;;6185278;23;20000;-32
2022/11/28 03:38:35;;;;;;;56.35;20.00;;;;;;;;;;6185632;23;19993;-32
2022/11/28 03:41:01;;;;;;;53.72;19.30;;;;;;;;;;6185896;23;19997;-32
2022/11/28 03:43:31;;;;;;;59.90;19.90;;;;;;;;;;6185612;23;19997;-32
2022/11/28 03:46:00;;;;;;;50.17;18.27;;;;;;;;;;6158768;23;20035;-33
2022/11/28 03:48:34;;;;;;;50.72;19.30;;;;;;;;;;6185549;23;19993;-32
2022/11/28 03:51:06;;;;;;;65.45;20.35;;;;;;;;;;6185654;23;20008;-32
2022/11/28 03:53:37;;;;;;;82.53;22.70;;;;;;;;;;6185598;23;20001;-32
2022/11/28 03:56:12;;;;;;;49.60;18.30;;;;;;;;;;6185562;23;19993;-32
2022/11/28 03:59:07;;;;;;;60.38;19.52;;;;;;;;;;6185451;23;20299;-33
2022/11/28 04:01:50;;;;;;;62.42;19.83;;;;;;;;;;6079410;23;20530;-32
2022/11/28 04:04:23;;;;;;;54.95;19.38;;;;;;;;;;6185416;23;20058;-33
2022/11/28 04:06:51;;;;;;;56.05;20.10;;;;;;;;;;6185544;23;20069;-33
2022/11/28 04:09:35;;;;;;;50.70;19.45;;;;;;;;;;6185282;23;20032;-33
2022/11/28 04:12:06;;;;;;;62.45;19.80;;;;;;;;;;6185347;23;20028;-33
2022/11/28 04:14:35;;;;;;;55.13;20.23;;;;;;;;;;6186003;23;19997;-33
2022/11/28 04:17:01;;;;;;;;;;;;;;;;;;6186016;23;20040;-32
2022/11/28 04:19:29;;;;;;;49.05;17.13;;;;;;;;;;6185344;23;19912;-33
2022/11/28 04:22:00;;;;;;;80.43;30.13;;;;;;;;;;6185065;23;20036;-32
2022/11/28 04:24:28;;;;;;;71.00;25.98;;;;;;;;;;6185264;23;20001;-32
2022/11/28 04:26:58;;;;;;;75.93;25.83;;;;;;;;;;6185505;23;19997;-32
2022/11/28 04:29:24;;;;;;;77.28;24.20;;;;;;;;;;6185273;23;20005;-32
2022/11/28 04:31:51;;;;;;;68.40;24.48;;;;;;;;;;6185265;23;19996;-32
2022/11/28 04:34:17;;;;;;;53.95;20.73;;;;;;;;;;6185148;23;19999;-32
2022/11/28 04:36:44;;;;;;;60.10;21.80;;;;;;;;;;6185329;23;20007;-32
2022/11/28 04:39:13;;;;;;;54.15;20.40;;;;;;;;;;6185098;23;20001;-33
2022/11/28 04:41:40;;;;;;;54.85;20.88;;;;;;;;;;6185098;23;20050;-33
2022/11/28 04:44:12;;;;;;;58.28;21.67;;;;;;;;;;6184925;23;19996;-32
2022/11/28 04:46:47;;;;;;;56.28;22.05;;;;;;;;;;6185170;23;19997;-32
2022/11/28 04:49:12;;;;;;;60.53;22.15;;;;;;;;;;6185116;23;20009;-32
2022/11/28 04:51:48;;;;;;;50.72;21.45;;;;;;;;;;6185391;23;20295;-32
2022/11/28 04:54:32;;;;;;;63.83;24.05;;;;;;;;;;6184246;23;20047;-33
2022/11/28 04:57:12;;;;;;;51.67;21.38;;;;;;;;;;6184790;23;19993;-32
2022/11/28 04:59:38;;;;;;;56.13;22.17;;;;;;;;;;6185182;23;19997;-32
2022/11/28 05:02:04;;;;;;;62.22;23.52;;;;;;;;;;6184821;23;20203;-33
2022/11/28 05:04:29;;;;;;;56.00;23.08;;;;;;;;;;6184954;23;20417;-33
2022/11/28 05:07:01;;;;;;;60.00;23.42;;;;;;;;;;6185086;23;20360;-33
2022/11/28 05:09:27;;;;;;;67.13;24.15;;;;;;;;;;6184900;23;20009;-34
2022/11/28 05:11:52;;;;;;;59.38;21.30;;;;;;;;;;6184962;23;20287;-36
2022/11/28 05:14:17;;;;;;;56.75;23.10;;;;;;;;;;6185239;23;20024;-34
2022/11/28 05:16:43;;;;;;;61.88;24.30;;;;;;;;;;6185224;23;19997;-33
2022/11/28 05:19:08;;;;;;;62.83;24.90;;;;;;;;;;6184442;23;20084;-34
2022/11/28 05:21:33;;;;;;;67.22;23.40;;;;;;;;;;6158601;23;19997;-33
2022/11/28 05:23:58;;;;;;;62.17;22.55;;;;;;;;;;6185031;23;20410;-34
2022/11/28 05:26:24;;;;;;;57.80;22.05;;;;;;;;;;6184984;23;20353;-32
2022/11/28 05:28:50;;;;;;;64.35;24.05;;;;;;;;;;6185085;23;20002;-32
2022/11/28 05:31:16;;;;;;;71.97;24.67;;;;;;;;;;6184625;23;19997;-32
2022/11/28 05:33:41;;;;;;;64.57;22.48;;;;;;;;;;6184894;23;20017;-34
2022/11/28 05:36:10;;;;;;;86.20;28.67;;;;;;;;;;6187646;23;19997;-34
2022/11/28 05:38:36;;;;;;;95.78;33.58;;;;;;;;;;6186841;23;19993;-34
2022/11/28 05:41:02;;;;;;;75.82;27.02;;;;;;;;;;6186776;23;20128;-34
2022/11/28 05:43:27;;;;;;;61.47;24.83;;;;;;;;;;6186805;23;20426;-34
2022/11/28 05:45:52;;;;;;;66.63;25.65;;;;;;;;;;6186522;23;19997;-34
2022/11/28 05:48:18;;;;;;;64.93;26.45;;;;;;;;;;6186620;23;20326;-34
2022/11/28 05:50:43;;;;;;;61.47;24.55;;;;;;;;;;6186166;23;20024;-34
2022/11/28 05:53:08;;;;;;;57.83;25.02;;;;;;;;;;6186668;23;20317;-34
2022/11/28 05:55:34;;;;;;;67.28;25.23;;;;;;;;;;6186864;23;19997;-32
2022/11/28 05:57:59;;;;;;;65.40;24.95;;;;;;;;;;6186802;23;20001;-32
2022/11/28 06:00:25;;;;;;;67.22;25.27;;;;;;;;;;6186582;23;19997;-33
2022/11/28 06:02:50;;;;;;;61.92;24.45;;;;;;;;;;6186515;23;20000;-33
2022/11/28 06:05:15;;;;;;;65.57;24.88;;;;;;;;;;6160587;23;20001;-33
2022/11/28 06:07:40;;;;;;;70.07;26.55;;;;;;;;;;6160267;23;20052;-34
2022/11/28 06:10:06;;;;;;;60.08;25.38;;;;;;;;;;6186562;23;20009;-33
2022/11/28 06:12:31;;;;;;;70.15;26.33;;;;;;;;;;6186457;23;20425;-33
2022/11/28 06:14:57;;;;;;;68.55;25.45;;;;;;;;;;6186460;23;20040;-34
2022/11/28 06:17:22;;;;;;;65.43;26.52;;;;;;;;;;6186664;23;19997;-33
2022/11/28 06:19:47;;;;;;;62.92;24.48;;;;;;;;;;6185910;23;20023;-34
2022/11/28 06:22:12;;;;;;;69.32;26.05;;;;;;;;;;6186438;23;20418;-35
2022/11/28 06:24:38;;;;;;;70.45;27.08;;;;;;;;;;6186405;23;20015;-34
2022/11/28 06:27:03;;;;;;;69.65;25.42;;;;;;;;;;6186407;23;20401;-33
2022/11/28 06:29:28;;;;;;;63.40;25.48;;;;;;;;;;6186411;23;20353;-33
2022/11/28 06:31:54;;;;;;;65.68;26.08;;;;;;;;;;6186307;23;20008;-34
2022/11/28 06:34:20;;;;;;;70.82;25.88;;;;;;;;;;6186249;23;20003;-34
2022/11/28 06:36:45;;;;;;;65.65;27.52;;;;;;;;;;6186362;23;20366;-34
2022/11/28 06:39:12;;;;;;;67.07;24.83;;;;;;;;;;6185409;23;19989;-34
2022/11/28 06:41:37;;;;;;;69.50;27.23;;;;;;;;;;6186082;23;19993;-33
2022/11/28 06:44:03;;;;;;;64.88;24.92;;;;;;;;;;6185827;23;19999;-33
2022/11/28 06:46:28;;;;;;;53.22;23.02;;;;;;;;;;6185709;23;19997;-33
2022/11/28 06:48:53;;;;;;;55.50;22.33;;;;;;;;;;6185389;23;20298;-33
2022/11/28 06:51:19;;;;;;;59.45;23.23;;;;;;;;;;6185829;23;19997;-33
2022/11/28 06:53:44;;;;;;;54.95;21.65;;;;;;;;;;6185859;23;20004;-33
2022/11/28 06:56:12;;;;;;;64.72;25.73;;;;;;;;;;6185800;23;20072;-32
2022/11/28 06:58:38;;;;;;;63.33;24.05;;;;;;;;;;6185533;23;19993;-33
2022/11/28 07:01:07;;;;;;;67.60;26.20;;;;;;;;;;6184110;23;20008;-35
2022/11/28 07:03:33;;;;;;;63.75;23.15;;;;;;;;;;6181532;23;20040;-33
2022/11/28 07:05:59;;;;;;;79.85;31.13;;;;;;;;;;6184709;23;19995;-34
2022/11/28 07:08:24;;;;;;;71.65;29.88;;;;;;;;;;6184042;23;19997;-34
2022/11/28 07:10:50;;;;;;;67.82;26.30;;;;;;;;;;6182341;23;20310;-36
2022/11/28 07:13:15;;;;;;;63.55;26.15;;;;;;;;;;6184405;23;20023;-35
2022/11/28 07:15:46;;;;;;;61.33;23.92;;;;;;;;;;6184467;23;20072;-34
2022/11/28 07:18:12;;;;;;;62.28;23.83;;;;;;;;;;6182649;23;20100;-34
2022/11/28 07:20:37;;;;;;;61.15;24.40;;;;;;;;;;6183263;23;20064;-35
2022/11/28 07:23:02;;;;;;;78.93;30.13;;;;;;;;;;6182429;23;19993;-35
2022/11/28 07:25:28;;;;;;;75.72;28.60;;;;;;;;;;6182116;23;19997;-35
2022/11/28 07:27:53;;;;;;;73.28;26.83;;;;;;;;;;6156015;23;19997;-34
2022/11/28 07:30:19;;;;;;;65.13;25.13;;;;;;;;;;6183365;23;20040;-35
2022/11/28 07:32:45;;;;;;;70.53;25.70;;;;;;;;;;6155380;23;19997;-34
2022/11/28 07:35:11;;;;;;;64.38;25.35;;;;;;;;;;6181967;23;20076;-35
2022/11/28 07:37:36;;;;;;;67.35;25.13;;;;;;;;;;6155034;23;20012;-35
2022/11/28 07:40:02;;;;;;;73.75;28.23;;;;;;;;;;6183901;23;20425;-34
2022/11/28 07:42:27;;;;;;;69.53;25.77;;;;;;;;;;6183909;23;20421;-34
2022/11/28 07:44:53;;;;;;;64.43;24.40;;;;;;;;;;6181553;23;19997;-33
2022/11/28 07:47:18;;;;;;;68.47;27.05;;;;;;;;;;6182258;23;20005;-34
2022/11/28 07:49:44;;;;;;;60.55;23.40;;;;;;;;;;6182756;23;20016;-34
2022/11/28 07:52:09;;;;;;;75.18;28.50;;;;;;;;;;6182817;23;20028;-34
2022/11/28 07:54:34;;;;;;;67.28;23.77;;;;;;;;;;6181799;23;19993;-33
2022/11/28 07:57:00;;;;;;;74.95;27.77;;;;;;;;;;6155446;23;20001;-32
2022/11/28 07:59:25;;;;;;;64.40;25.02;;;;;;;;;;6182416;23;20313;-33
2022/11/28 08:01:52;;;;;;;72.70;23.73;;;;;;;;;;6182568;23;20000;-33
2022/11/28 08:04:17;;;;;;;67.88;24.98;;;;;;;;;;6181413;23;19997;-33
2022/11/28 08:06:58;;;;;;;40.83;14.52;;;;;;;;;;5062675;28;20397;-41
2022/11/28 08:09:24;;;;;;;66.90;26.63;;;;;;;;;;5048769;28;20510;-42
2022/11/28 08:11:51;;;;;;;65.57;26.17;;;;;;;;;;5047478;28;20029;-41
2022/11/28 08:14:16;;;;;;;61.45;24.80;;;;;;;;;;5041798;28;20066;-43
2022/11/28 08:16:43;;;;;;;59.92;24.58;;;;;;;;;;5036083;28;20409;-44
2022/11/28 08:19:09;;;;;;;62.83;26.25;;;;;;;;;;5041904;28;20017;-46
2022/11/28 08:21:35;;;;;;;67.93;26.23;;;;;;;;;;5039197;28;21099;-41
2022/11/28 08:24:01;;;;;;;56.75;23.83;;;;;;;;;;5041144;28;20115;-39
2022/11/28 08:26:27;;;;;;;60.83;25.00;;;;;;;;;;5043956;28;20121;-38
2022/11/28 08:28:53;;;;;;;64.60;26.52;;;;;;;;;;5032210;28;20542;-41
2022/11/28 08:31:19;;;;;;;66.60;26.02;;;;;;;;;;5040928;28;20067;-41
2022/11/28 08:33:46;;;;;;;64.03;25.08;;;;;;;;;;5041195;28;20060;-42
2022/11/28 08:36:13;;;;;;;70.45;27.50;;;;;;;;;;5043135;28;20030;-38
2022/11/28 08:38:39;;;;;;;68.82;25.80;;;;;;;;;;5038731;28;20329;-40
2022/11/28 08:41:06;;;;;;;63.53;25.23;;;;;;;;;;5042608;28;20056;-42
2022/11/28 08:43:33;;;;;;;70.68;27.40;;;;;;;;;;5031215;28;20076;-43
2022/11/28 08:45:59;;;;;;;62.05;25.77;;;;;;;;;;5044579;28;20120;-40
2022/11/28 08:48:24;;;;;;;65.47;24.58;;;;;;;;;;5041758;28;20104;-42
2022/11/28 08:50:49;;;;;;;56.22;22.02;;;;;;;;;;5043636;28;20026;-41
2022/11/28 08:53:15;;;;;;;61.58;25.90;;;;;;;;;;5045445;28;20021;-37
2022/11/28 08:55:40;;;;;;;63.60;25.08;;;;;;;;;;5042656;28;20021;-41
2022/11/28 08:58:06;;;;;;;74.68;29.20;;;;;;;;;;5045502;28;20108;-39
2022/11/28 09:00:31;;;;;;;77.25;27.20;;;;;;;;;;5043655;28;20034;-42
2022/11/28 09:02:56;;;;;;;72.78;24.80;;;;;;;;;;5040897;28;20061;-39
2022/11/28 09:05:22;;;;;;;59.60;22.38;;;;;;;;;;5044032;28;20500;-42
2022/11/28 09:07:47;;;;;;;66.90;24.63;;;;;;;;;;5039559;28;20028;-44
2022/11/28 09:10:12;;;;;;;77.22;28.08;;;;;;;;;;5038803;28;20020;-48
2022/11/28 09:12:38;;;;;;;72.13;25.45;;;;;;;;;;5045449;28;20024;-43
2022/11/28 09:15:03;;;;;;;80.90;27.58;;;;;;;;;;5047071;28;20020;-45
2022/11/28 09:17:28;;;;;;;80.60;28.33;;;;;;;;;;5030687;28;20045;-43
2022/11/28 09:19:54;;;;;;;85.68;30.65;;;;;;;;;;5028149;28;20032;-44
2022/11/28 09:22:19;;;;;;;80.82;28.52;;;;;;;;;;5022763;28;20025;-44
2022/11/28 09:24:44;;;;;;;69.28;26.42;;;;;;;;;;5033471;28;20033;-44
2022/11/28 09:27:10;;;;;;;85.50;30.92;;;;;;;;;;5025604;28;20096;-44
2022/11/28 09:29:35;;;;;;;75.95;28.40;;;;;;;;;;5022652;28;20084;-42
2022/11/28 09:32:00;;;;;;;68.22;25.63;;;;;;;;;;5031099;28;20025;-44
2022/11/28 09:34:26;;;;;;;71.18;26.15;;;;;;;;;;5018461;28;20028;-43
2022/11/28 09:36:51;;;;;;;73.15;25.33;;;;;;;;;;5028413;28;20030;-43
2022/11/28 09:39:17;;;;;;;77.40;28.27;;;;;;;;;;5024880;28;20049;-42
2022/11/28 09:42:02;;;;;;;76.15;28.55;;;;;;;;;;5026476;28;20035;-44
2022/11/28 09:44:37;;;;;;;70.22;25.95;;;;;;;;;;5029911;28;20101;-43
2022/11/28 09:47:04;;;;;;;70.50;25.23;;;;;;;;;;5030998;28;20049;-44
2022/11/28 09:49:43;;;;;;;70.03;25.17;;;;;;;;;;5029750;28;20515;-40
2022/11/28 09:52:18;;;;;;;72.05;25.50;;;;;;;;;;5021164;28;20041;-45
2022/11/28 09:54:55;;;;;;;67.32;26.65;;;;;;;;;;5022883;28;20149;-45
2022/11/28 09:57:24;;;;;;;68.20;27.70;;;;;;;;;;5031133;28;20084;-43
2022/11/28 09:59:50;;;;;;;76.03;29.40;;;;;;;;;;5031253;28;20029;-41
2022/11/28 10:02:15;;;;;;;83.20;27.83;;;;;;;;;;5029127;28;20021;-40
2022/11/28 10:04:44;;;;;;;80.22;29.95;;;;;;;;;;5021545;28;20109;-42
2022/11/28 10:07:31;;;;;;;85.17;29.90;;;;;;;;;;5029647;28;20040;-39
2022/11/28 10:10:13;;;;;;;82.07;30.10;;;;;;;;;;5023117;28;20258;-45
2022/11/28 10:12:53;;;;;;;84.95;32.33;;;;;;;;;;5025731;28;20022;-43
2022/11/28 10:15:23;;;;;;;80.47;28.30;;;;;;;;;;5026586;28;20052;-44
2022/11/28 10:17:49;;;;;;;78.20;26.17;;;;;;;;;;5027447;28;20192;-45
2022/11/28 10:20:21;;;;;;;79.75;26.80;;;;;;;;;;5025958;28;20603;-46
2022/11/28 10:23:15;;;;;;;83.20;28.85;;;;;;;;;;5020668;28;20037;-45
2022/11/28 10:25:44;;;;;;;86.25;27.38;;;;;;;;;;5030414;28;20052;-44
2022/11/28 10:28:14;;;;;;;86.23;29.90;;;;;;;;;;5032120;28;20408;-45
2022/11/28 10:30:41;;;;;;;88.18;33.50;;;;;;;;;;5030430;28;20024;-42
2022/11/28 10:33:13;;;;;;;70.13;26.27;;;;;;;;;;5026180;28;20025;-45
2022/11/28 10:35:39;;;;;;;77.07;26.52;;;;;;;;;;5029589;28;20025;-44
2022/11/28 10:38:15;;;;;;;62.55;22.77;;;;;;;;;;5026486;28;20025;-41
2022/11/28 10:40:43;;;;;;;68.60;24.55;;;;;;;;;;5026540;28;20044;-42
2022/11/28 10:43:19;;;;;;;64.57;23.52;;;;;;;;;;5031215;28;20022;-45
2022/11/28 10:46:02;;;;;;;65.97;23.02;;;;;;;;;;5029575;28;20048;-46
2022/11/28 10:48:28;;;;;;;66.45;22.88;;;;;;;;;;5032242;28;20030;-40
2022/11/28 10:51:09;;;;;;;71.60;25.27;;;;;;;;;;5032543;28;20029;-43
2022/11/28 10:53:34;;;;;;;92.38;34.05;;;;;;;;;;5030590;28;20199;-42
2022/11/28 10:56:14;;;;;;;82.32;29.70;;;;;;;;;;5031571;28;20435;-43
2022/11/28 10:58:42;;;;;;;70.18;25.75;;;;;;;;;;5030984;28;20025;-45
2022/11/28 11:01:08;;;;;;;77.32;28.40;;;;;;;;;;5030843;28;20028;-44
2022/11/28 11:03:37;;;;;;;75.43;26.27;;;;;;;;;;5028903;28;20401;-42
2022/11/28 11:06:02;;;;;;;71.00;26.42;;;;;;;;;;5024285;28;20762;-43
2022/11/28 11:08:29;;;;;;;59.22;21.10;;;;;;;;;;5032167;28;20095;-44
2022/11/28 11:10:54;;;;;;;67.55;25.70;;;;;;;;;;5031393;28;20064;-43
2022/11/28 11:13:19;;;;;;;73.80;26.02;;;;;;;;;;5030576;28;20053;-42
2022/11/28 11:15:50;;;;;;;68.68;22.77;;;;;;;;;;5028560;28;20105;-41
2022/11/28 11:18:23;;;;;;;64.32;22.85;;;;;;;;;;5032419;28;20021;-43
2022/11/28 11:20:48;;;;;;;59.65;22.58;;;;;;;;;;5032542;28;20025;-42
2022/11/28 11:23:18;;;;;;;62.58;22.75;;;;;;;;;;5032005;28;20025;-41
2022/11/28 11:25:45;;;;;;;58.90;21.00;;;;;;;;;;5031192;28;20083;-42
2022/11/28 11:28:23;;;;;;;58.45;23.25;;;;;;;;;;5032659;28;20361;-44
2022/11/28 11:30:48;;;;;;;58.30;22.67;;;;;;;;;;5032095;28;20389;-44
2022/11/28 11:33:15;;;;;;;57.80;22.17;;;;;;;;;;5029963;28;20029;-42
2022/11/28 11:35:45;;;;;;;60.35;23.35;;;;;;;;;;5031051;28;20036;-41
2022/11/28 11:38:14;;;;;;;58.03;21.65;;;;;;;;;;5030605;28;20025;-41
2022/11/28 11:40:39;;;;;;;62.17;23.57;;;;;;;;;;5020225;28;20033;-44
2022/11/28 11:43:20;;;;;;;60.35;22.73;;;;;;;;;;5024154;28;20010;-42
2022/11/28 11:45:46;;;;;;;55.85;22.13;;;;;;;;;;5031817;28;20183;-44
2022/11/28 11:48:12;;;;;;;57.20;20.80;;;;;;;;;;5031798;28;20479;-45
2022/11/28 11:50:40;;;;;;;45.78;18.05;;;;;;;;;;5031825;28;20479;-43
2022/11/28 11:53:10;;;;;;;50.78;20.20;;;;;;;;;;5026574;28;20435;-45
2022/11/28 11:55:49;;;;;;;54.67;20.95;;;;;;;;;;5028887;28;20571;-45
2022/11/28 11:58:17;;;;;;;62.72;21.58;;;;;;;;;;5021390;28;20392;-45
2022/11/28 12:00:42;;;;;;;65.18;24.65;;;;;;;;;;5022991;28;20427;-43
2022/11/28 12:03:22;;;;;;;63.95;23.48;;;;;;;;;;5024503;28;20026;-44
2022/11/28 12:05:51;;;;;;;65.65;24.15;;;;;;;;;;5024187;28;20549;-44
2022/11/28 12:08:17;;;;;;;;;;;;;;;;;;5026081;28;20462;-41
2022/11/28 12:10:45;;;;;;;55.67;20.17;;;;;;;;;;5018755;28;19996;-44
2022/11/28 12:13:18;;;;;;;46.00;18.95;;;;;;;;;;5023325;28;20025;-40
2022/11/28 12:16:15;;;;;;;58.80;20.70;;;;;;;;;;5025132;28;20030;-43
2022/11/28 12:18:40;;;;;;;51.10;18.83;;;;;;;;;;5021522;28;20041;-45
2022/11/28 12:21:09;;;;;;;63.50;23.70;;;;;;;;;;5009673;28;20458;-43
2022/11/28 12:23:52;;;;;;;50.67;19.85;;;;;;;;;;5013970;28;20289;-48
2022/11/28 12:26:22;;;;;;;49.67;19.90;;;;;;;;;;5024644;28;20043;-45
2022/11/28 12:28:55;;;;;;;56.95;21.05;;;;;;;;;;5022686;28;20089;-44
2022/11/28 12:31:32;;;;;;;56.17;25.42;;;;;;;;;;5024491;28;20377;-43
2022/11/28 12:34:11;;;;;;;51.78;21.42;;;;;;;;;;5022549;28;20124;-41
2022/11/28 12:36:47;;;;;;;45.17;18.77;;;;;;;;;;5016721;28;20104;-44
2022/11/28 12:39:20;;;;;;;42.60;18.73;;;;;;;;;;5028418;28;20129;-43
2022/11/28 12:41:48;;;;;;;42.35;17.67;;;;;;;;;;5024515;28;20018;-41
2022/11/28 12:44:16;;;;;;;41.50;17.08;;;;;;;;;;5023895;28;20032;-40
2022/11/28 12:46:50;;;;;;;44.70;17.20;;;;;;;;;;5029860;28;20039;-41
2022/11/28 12:49:19;;;;;;;41.00;18.05;;;;;;;;;;5024520;28;20610;-42
2022/11/28 12:51:44;;;;;;;42.50;17.10;;;;;;;;;;5028644;28;20130;-43
2022/11/28 12:54:18;;;;;;;35.10;15.32;;;;;;;;;;5027068;28;20030;-43
2022/11/28 12:56:50;;;;;;;39.60;18.42;;;;;;;;;;5030339;28;20029;-44
2022/11/28 12:59:18;;;;;;;45.08;18.77;;;;;;;;;;5029513;28;20029;-41
2022/11/28 13:01:59;;;;;;;42.60;17.30;;;;;;;;;;5031931;28;20373;-43
2022/11/28 13:04:31;;;;;;;38.45;15.63;;;;;;;;;;5028754;28;20041;-39
2022/11/28 13:06:59;;;;;;;45.42;18.13;;;;;;;;;;5030690;28;20042;-46
2022/11/28 13:09:27;;;;;;;45.75;20.02;;;;;;;;;;5024529;28;20025;-40
2022/11/28 13:11:56;;;;;;;43.45;18.33;;;;;;;;;;5020670;28;20029;-43
2022/11/28 13:14:28;;;;;;;44.65;19.17;;;;;;;;;;5028064;28;20060;-43
2022/11/28 13:16:56;;;;;;;41.75;18.88;;;;;;;;;;5033145;28;20124;-43
2022/11/28 13:19:21;;;;;;;41.08;17.13;;;;;;;;;;5029776;28;20526;-42
2022/11/28 13:22:05;;;;;;;42.25;18.42;;;;;;;;;;5022708;28;20105;-43
2022/11/28 13:24:36;;;;;;;41.03;18.15;;;;;;;;;;5030546;28;20082;-44
2022/11/28 13:27:08;;;;;;;42.35;19.55;;;;;;;;;;5032011;28;20112;-43
2022/11/28 13:29:48;;;;;;;119.68;46.33;;;;;;;;;;5033718;28;20030;-44
2022/11/28 13:32:28;;;;;;;39.15;17.48;;;;;;;;;;5023497;28;20041;-43
2022/11/28 13:34:53;;;;;;;62.97;27.15;;;;;;;;;;5030772;28;20480;-44
2022/11/28 13:37:30;;;;;;;51.92;21.77;;;;;;;;;;5030815;28;20068;-43
2022/11/28 13:40:00;;;;;;;50.35;21.70;;;;;;;;;;5027632;28;20021;-43
2022/11/28 13:42:30;;;;;;;58.92;26.58;;;;;;;;;;5028865;28;20014;-46
2022/11/28 13:45:01;;;;;;;50.17;21.38;;;;;;;;;;5025621;28;20121;-41
2022/11/28 13:47:29;;;;;;;45.17;20.15;;;;;;;;;;5032574;28;20029;-45
2022/11/28 13:50:12;;;;;;;48.13;21.00;;;;;;;;;;5029009;28;20022;-41
2022/11/28 13:52:41;;;;;;;42.55;18.85;;;;;;;;;;5029799;28;20109;-42
2022/11/28 13:55:27;;;;;;;43.08;20.92;;;;;;;;;;5024889;28;20036;-41
2022/11/28 13:57:52;;;;;;;51.42;20.80;;;;;;;;;;5031777;28;20079;-40
2022/11/28 14:00:17;;;;;;;49.65;20.13;;;;;;;;;;5029555;28;20749;-44
2022/11/28 14:02:47;;;;;;;51.08;21.45;;;;;;;;;;5027337;28;20021;-42
2022/11/28 14:05:30;;;;;;;57.40;22.75;;;;;;;;;;5030845;28;20061;-43
2022/11/28 14:07:56;;;;;;;57.58;24.05;;;;;;;;;;5032323;28;20038;-40
2022/11/28 14:10:27;;;;;;;54.05;24.05;;;;;;;;;;5027572;28;20018;-43
2022/11/28 14:13:02;;;;;;;58.03;25.15;;;;;;;;;;5029926;28;20056;-42
2022/11/28 14:15:35;;;;;;;59.65;27.40;;;;;;;;;;5015211;28;20469;-44
2022/11/28 14:18:18;;;;;;;46.22;21.00;;;;;;;;;;5023962;28;20014;-42
2022/11/28 14:20:57;;;;;;;47.08;22.35;;;;;;;;;;5028010;28;20081;-43
2022/11/28 14:23:23;;;;;;;58.33;26.02;;;;;;;;;;5023740;28;20018;-39
2022/11/28 14:25:49;;;;;;;54.45;25.60;;;;;;;;;;5034433;28;20052;-45
2022/11/28 14:28:18;;;;;;;58.35;25.15;;;;;;;;;;5026318;28;20022;-43